createdAt,value
2019-05-03T00:02:27.555Z,44.73
2019-05-03T00:05:05.243Z,41.73
2019-05-03T00:07:37.454Z,45.00
2019-05-03T00:10:07.745Z,39.50
2019-05-03T00:12:38.571Z,42.40
2019-05-03T00:15:23.072Z,38.30
2019-05-03T00:17:56.218Z,44.33
2019-05-03T00:20:29.965Z,40.47
2019-05-03T00:22:59.047Z,43.20
2019-05-03T00:25:29.800Z,46.67
2019-05-03T00:28:01.962Z,49.60
2019-05-03T00:30:35.812Z,49.30
2019-05-03T00:33:12.532Z,42.03
2019-05-03T00:36:06.457Z,47.20
2019-05-03T00:38:36.672Z,41.50
2019-05-03T00:41:08.853Z,42.10
2019-05-03T00:43:42.381Z,43.93
2019-05-03T00:46:13.561Z,41.63
2019-05-03T00:48:43.129Z,41.63
2019-05-03T00:51:12.328Z,38.20
2019-05-03T00:53:44.396Z,41.83
2019-05-03T00:56:16.464Z,38.90
2019-05-03T00:58:58.062Z,32.27
2019-05-03T01:01:29.108Z,34.17
2019-05-03T01:04:01.662Z,46.70
2019-05-03T01:06:31.996Z,31.27
2019-05-03T01:09:02.749Z,30.10
2019-05-03T01:11:32.465Z,36.17
2019-05-03T01:14:03.289Z,31.97
2019-05-03T01:16:32.737Z,36.83
2019-05-03T01:19:02.733Z,33.47
2019-05-03T01:21:36.641Z,33.93
2019-05-03T01:24:05.760Z,36.10
2019-05-03T01:26:36.472Z,28.57
2019-05-03T01:29:05.747Z,34.27
2019-05-03T01:31:36.563Z,29.97
2019-05-03T01:34:12.485Z,28.97
2019-05-03T01:36:42.711Z,34.53
2019-05-03T01:39:12.769Z,35.27
2019-05-03T01:41:42.011Z,31.00
2019-05-03T01:44:13.743Z,32.20
2019-05-03T01:46:43.415Z,33.60
2019-05-03T01:49:23.058Z,32.70
2019-05-03T01:52:14.635Z,29.27
2019-05-03T01:54:43.712Z,30.60
2019-05-03T01:57:13.494Z,30.33
2019-05-03T01:59:44.291Z,31.97
2019-05-03T02:02:41.851Z,30.87
2019-05-03T02:05:39.257Z,32.60
2019-05-03T02:08:14.532Z,27.47
2019-05-03T02:10:47.784Z,33.47
2019-05-03T02:13:16.925Z,31.23
2019-05-03T02:15:46.010Z,31.00
2019-05-03T02:18:17.823Z,36.60
2019-05-03T02:20:52.407Z,33.93
2019-05-03T02:23:22.459Z,32.20
2019-05-03T02:25:56.742Z,32.60
2019-05-03T02:28:25.120Z,34.27
2019-05-03T02:30:54.182Z,31.90
2019-05-03T02:33:23.540Z,33.43
2019-05-03T02:35:53.439Z,31.87
2019-05-03T02:38:23.346Z,34.70
2019-05-03T02:40:55.400Z,35.33
2019-05-03T02:43:32.482Z,34.03
2019-05-03T02:46:21.514Z,37.67
2019-05-03T02:49:15.410Z,36.70
2019-05-03T02:51:46.048Z,30.40
2019-05-03T02:54:17.235Z,34.33
2019-05-03T02:56:48.883Z,38.80
2019-05-03T02:59:19.230Z,35.83
2019-05-03T03:01:48.387Z,35.63
2019-05-03T03:04:18.357Z,42.43
2019-05-03T03:06:48.321Z,40.37
2019-05-03T03:09:20.668Z,42.53
2019-05-03T03:11:51.382Z,39.30
2019-05-03T03:14:21.994Z,38.37
2019-05-03T03:16:55.992Z,41.53
2019-05-03T03:19:28.753Z,40.63
2019-05-03T03:22:01.853Z,40.67
2019-05-03T03:24:32.591Z,41.03
2019-05-03T03:27:08.466Z,45.07
2019-05-03T03:29:38.086Z,39.83
2019-05-03T03:32:22.557Z,37.60
2019-05-03T03:35:11.726Z,41.37
2019-05-03T03:37:41.836Z,40.70
2019-05-03T03:40:12.843Z,39.77
2019-05-03T03:42:44.824Z,39.70
2019-05-03T03:45:16.598Z,42.27
2019-05-03T03:47:47.851Z,39.73
2019-05-03T03:50:17.087Z,38.97
2019-05-03T03:52:52.721Z,44.73
2019-05-03T03:55:26.440Z,37.80
2019-05-03T03:57:57.008Z,34.90
2019-05-03T04:00:31.306Z,35.20
2019-05-03T04:03:05.618Z,40.17
2019-05-03T04:05:35.915Z,37.50
2019-05-03T04:08:09.586Z,40.40
2019-05-03T04:10:39.372Z,35.57
2019-05-03T04:13:16.009Z,31.10
2019-05-03T04:16:05.524Z,37.33
2019-05-03T04:18:40.105Z,39.23
2019-05-03T04:21:10.189Z,40.67
2019-05-03T04:23:41.720Z,36.23
2019-05-03T04:26:10.976Z,37.43
2019-05-03T04:28:41.025Z,34.33
2019-05-03T04:31:10.515Z,37.10
2019-05-03T04:33:39.918Z,38.23
2019-05-03T04:36:09.393Z,39.33
2019-05-03T04:38:38.499Z,28.90
2019-05-03T04:41:07.993Z,35.03
2019-05-03T04:43:39.777Z,34.80
2019-05-03T04:46:16.976Z,32.23
2019-05-03T04:48:46.036Z,36.93
2019-05-03T04:51:25.849Z,37.70
2019-05-03T04:54:16.124Z,34.80
2019-05-03T04:56:46.591Z,33.00
2019-05-03T04:59:16.295Z,38.67
2019-05-03T05:01:47.435Z,32.03
2019-05-03T05:04:17.287Z,31.30
2019-05-03T05:06:49.255Z,36.07
2019-05-03T05:09:19.380Z,37.07
2019-05-03T05:11:49.579Z,38.50
2019-05-03T05:14:20.463Z,31.97
2019-05-03T05:16:50.275Z,33.10
2019-05-03T05:19:25.412Z,31.50
2019-05-03T05:21:59.935Z,31.30
2019-05-03T05:24:29.232Z,30.90
2019-05-03T05:27:26.055Z,30.03
2019-05-03T05:29:58.632Z,34.23
2019-05-03T05:32:28.153Z,28.37
2019-05-03T05:34:59.237Z,39.40
2019-05-03T05:37:30.877Z,27.90
2019-05-03T05:40:02.344Z,31.20
2019-05-03T05:42:31.864Z,26.67
2019-05-03T05:45:01.191Z,25.87
2019-05-03T05:47:44.969Z,25.30
2019-05-03T05:50:40.898Z,26.60
2019-05-03T05:53:19.223Z,28.53
2019-05-03T05:56:13.499Z,26.40
2019-05-03T05:59:10.600Z,28.40
2019-05-03T06:01:59.486Z,28.77
2019-05-03T06:04:28.855Z,25.07
2019-05-03T06:07:24.844Z,27.17
2019-05-03T06:10:19.871Z,25.97
2019-05-03T06:13:04.867Z,27.27
2019-05-03T06:15:57.805Z,27.27
2019-05-03T06:18:32.780Z,28.07
2019-05-03T06:21:21.287Z,28.70
2019-05-03T06:23:57.786Z,27.30
2019-05-03T06:26:44.392Z,27.47
2019-05-03T06:29:15.002Z,25.13
2019-05-03T06:31:57.728Z,23.40
2019-05-03T06:34:27.697Z,22.17
2019-05-03T06:36:58.805Z,22.73
2019-05-03T06:39:35.216Z,18.30
2019-05-03T06:42:05.209Z,17.80
2019-05-03T06:44:34.973Z,16.87
2019-05-03T06:47:06.673Z,20.47
2019-05-03T06:49:39.257Z,18.20
2019-05-03T06:52:11.769Z,19.20
2019-05-03T06:54:41.058Z,17.27
2019-05-03T06:57:12.103Z,20.93
2019-05-03T07:00:07.363Z,18.57
2019-05-03T07:02:58.856Z,18.60
2019-05-03T07:05:47.075Z,21.30
2019-05-03T07:08:34.439Z,19.20
2019-05-03T07:11:05.216Z,19.60
2019-05-03T07:13:37.629Z,18.70
2019-05-03T07:16:10.271Z,21.77
2019-05-03T07:18:39.852Z,19.70
2019-05-03T07:21:11.647Z,21.27
2019-05-03T07:23:41.964Z,21.93
2019-05-03T07:26:11.060Z,21.37
2019-05-03T07:28:47.741Z,20.90
2019-05-03T07:31:15.061Z,22.57
2019-05-03T07:33:44.693Z,22.00
2019-05-03T07:36:15.422Z,20.77
2019-05-03T07:38:45.442Z,19.83
2019-05-03T07:41:17.111Z,18.03
2019-05-03T07:43:46.514Z,26.10
2019-05-03T07:46:18.135Z,17.63
2019-05-03T07:48:47.306Z,20.23
2019-05-03T07:51:16.378Z,17.27
2019-05-03T07:53:48.422Z,15.43
2019-05-03T07:56:18.332Z,18.20
2019-05-03T07:59:02.644Z,14.80
2019-05-03T08:01:32.513Z,18.80
2019-05-03T08:04:02.461Z,19.70
2019-05-03T08:06:31.575Z,20.53
2019-05-03T08:09:01.123Z,18.97
2019-05-03T08:11:35.053Z,17.57
2019-05-03T08:14:05.000Z,16.97
2019-05-03T08:16:35.692Z,22.20
2019-05-03T08:19:06.567Z,16.00
2019-05-03T08:21:37.860Z,18.10
2019-05-03T08:24:09.075Z,16.37
2019-05-03T08:26:38.211Z,16.83
2019-05-03T08:29:15.954Z,16.23
2019-05-03T08:32:00.175Z,20.33
2019-05-03T08:34:34.953Z,24.53
2019-05-03T08:37:06.028Z,17.23
2019-05-03T08:39:35.818Z,15.57
2019-05-03T08:42:11.874Z,16.73
2019-05-03T08:44:45.306Z,16.70
2019-05-03T08:47:15.533Z,16.07
2019-05-03T08:49:45.123Z,15.03
2019-05-03T08:52:16.135Z,16.50
2019-05-03T08:54:47.406Z,16.03
2019-05-03T08:57:18.363Z,13.07
2019-05-03T08:59:49.955Z,12.93
2019-05-03T09:02:19.276Z,16.80
2019-05-03T09:04:49.421Z,14.20
2019-05-03T09:07:18.550Z,18.60
2019-05-03T09:10:05.421Z,16.93
2019-05-03T09:12:52.967Z,14.30
2019-05-03T09:15:22.135Z,11.80
2019-05-03T09:17:52.132Z,14.00
2019-05-03T09:20:32.350Z,13.03
2019-05-03T09:23:06.606Z,14.27
2019-05-03T09:25:37.357Z,9.60
2019-05-03T09:28:10.370Z,13.43
2019-05-03T09:30:44.505Z,11.93
2019-05-03T09:33:17.153Z,9.23
2019-05-03T09:35:47.731Z,11.97
2019-05-03T09:38:18.965Z,10.60
2019-05-03T09:40:51.951Z,11.80
2019-05-03T09:43:25.095Z,8.63
2019-05-03T09:45:54.771Z,11.70
2019-05-03T09:48:25.440Z,10.63
2019-05-03T09:50:55.909Z,8.60
2019-05-03T09:53:27.581Z,10.77
2019-05-03T09:55:57.732Z,8.77
2019-05-03T09:58:28.397Z,9.30
2019-05-03T10:00:57.519Z,8.70
2019-05-03T10:03:26.731Z,9.03
2019-05-03T10:05:55.818Z,10.53
2019-05-03T10:08:28.577Z,9.50
2019-05-03T10:11:15.865Z,9.10
2019-05-03T10:13:56.319Z,9.50
2019-05-03T10:16:25.596Z,8.70
2019-05-03T10:18:55.352Z,10.93
2019-05-03T10:21:27.981Z,10.07
2019-05-03T10:23:57.072Z,12.23
2019-05-03T10:26:26.881Z,11.27
2019-05-03T10:28:57.681Z,14.13
2019-05-03T10:31:32.441Z,12.17
2019-05-03T10:34:02.749Z,11.90
2019-05-03T10:36:31.850Z,13.27
2019-05-03T10:39:04.816Z,11.40
2019-05-03T10:41:36.680Z,11.70
2019-05-03T10:44:06.156Z,11.30
2019-05-03T10:46:37.298Z,12.30
2019-05-03T10:49:09.515Z,9.63
2019-05-03T10:51:45.255Z,10.50
2019-05-03T10:54:22.584Z,12.00
2019-05-03T10:56:59.090Z,10.43
2019-05-03T10:59:32.259Z,12.47
2019-05-03T11:02:13.268Z,9.47
2019-05-03T11:04:44.243Z,9.33
2019-05-03T11:07:17.417Z,7.13
2019-05-03T11:09:49.497Z,9.77
2019-05-03T11:12:20.669Z,7.97
2019-05-03T11:14:52.803Z,10.77
2019-05-03T11:17:22.410Z,11.00
2019-05-03T11:19:54.610Z,9.70
2019-05-03T11:22:26.439Z,11.80
2019-05-03T11:24:58.787Z,7.80
2019-05-03T11:27:35.378Z,9.10
2019-05-03T11:30:09.402Z,10.00
2019-05-03T11:32:59.669Z,8.50
2019-05-03T11:35:41.404Z,8.80
2019-05-03T11:38:25.250Z,9.07
2019-05-03T11:40:56.020Z,9.07
2019-05-03T11:43:26.614Z,13.27
2019-05-03T11:46:00.221Z,9.27
2019-05-03T11:48:29.521Z,8.83
2019-05-03T11:51:02.034Z,11.07
2019-05-03T11:53:39.292Z,9.90
2019-05-03T11:56:12.326Z,8.23
2019-05-03T11:58:41.446Z,11.40
2019-05-03T12:01:19.889Z,10.60
2019-05-03T12:03:59.437Z,9.87
2019-05-03T12:06:28.868Z,8.63
2019-05-03T12:08:59.674Z,7.60
2019-05-03T12:11:30.841Z,7.27
2019-05-03T12:14:15.414Z,7.80
2019-05-03T12:17:19.581Z,7.77
2019-05-03T12:19:31.510Z,6.43
2019-05-03T12:22:05.881Z,7.00
2019-05-03T12:24:39.549Z,8.80
2019-05-03T12:27:08.101Z,10.83
2019-05-03T12:29:37.738Z,11.10
2019-05-03T12:32:09.098Z,9.40
2019-05-03T12:34:46.330Z,5.60
2019-05-03T12:37:15.577Z,10.50
2019-05-03T12:39:44.895Z,8.40
2019-05-03T12:42:35.485Z,7.40
2019-05-03T12:45:05.530Z,7.87
2019-05-03T12:47:34.843Z,7.93
2019-05-03T12:50:05.490Z,8.07
2019-05-03T12:52:39.385Z,8.40
2019-05-03T12:55:06.751Z,8.97
2019-05-03T12:57:37.420Z,7.80
2019-05-03T13:00:26.254Z,10.93
2019-05-03T13:03:04.457Z,7.20
2019-05-03T13:05:36.582Z,7.70
2019-05-03T13:08:35.550Z,8.90
2019-05-03T13:11:07.724Z,7.80
2019-05-03T13:13:38.376Z,7.07
2019-05-03T13:16:12.220Z,8.00
2019-05-03T13:18:41.818Z,8.40
2019-05-03T13:21:11.158Z,6.83
2019-05-03T13:23:41.275Z,5.47
2019-05-03T13:26:14.875Z,5.83
2019-05-03T13:28:45.802Z,5.43
2019-05-03T13:31:16.847Z,5.03
2019-05-03T13:33:46.715Z,5.27
2019-05-03T13:36:16.089Z,4.80
2019-05-03T13:38:45.924Z,5.47
2019-05-03T13:41:18.335Z,3.27
2019-05-03T13:43:51.102Z,5.60
2019-05-03T13:46:20.341Z,5.33
2019-05-03T13:48:50.482Z,6.33
2019-05-03T13:51:20.827Z,5.33
2019-05-03T13:53:55.156Z,5.87
2019-05-03T13:56:24.721Z,4.93
2019-05-03T13:58:56.900Z,8.50
2019-05-03T14:01:30.024Z,6.60
2019-05-03T14:03:59.122Z,8.20
2019-05-03T14:06:29.823Z,6.97
2019-05-03T14:08:59.003Z,6.50
2019-05-03T14:11:28.524Z,7.20
2019-05-03T14:13:57.852Z,7.73
2019-05-03T14:16:26.949Z,7.30
2019-05-03T14:19:00.056Z,7.27
2019-05-03T14:21:35.283Z,5.57
2019-05-03T14:24:12.305Z,11.33
2019-05-03T14:26:44.547Z,7.37
2019-05-03T14:29:14.881Z,6.70
2019-05-03T14:31:47.489Z,8.17
2019-05-03T14:34:20.292Z,7.00
2019-05-03T14:36:52.179Z,9.67
2019-05-03T14:39:21.489Z,7.80
2019-05-03T14:41:50.760Z,6.47
2019-05-03T14:44:21.198Z,8.83
2019-05-03T14:46:58.825Z,6.27
2019-05-03T14:49:28.161Z,6.03
2019-05-03T14:51:59.540Z,8.00
2019-05-03T14:54:36.130Z,5.10
2019-05-03T14:57:19.666Z,4.90
2019-05-03T15:00:07.680Z,6.90
2019-05-03T15:02:58.057Z,5.23
2019-05-03T15:05:27.081Z,6.57
2019-05-03T15:08:01.734Z,6.30
2019-05-03T15:10:34.985Z,4.43
2019-05-03T15:13:05.229Z,4.40
2019-05-03T15:15:34.814Z,4.20
2019-05-03T15:18:06.542Z,5.23
2019-05-03T15:20:35.651Z,3.37
2019-05-03T15:23:05.492Z,5.97
2019-05-03T15:25:35.103Z,4.27
2019-05-03T15:28:06.792Z,3.87
2019-05-03T15:30:35.872Z,3.90
2019-05-03T15:33:05.316Z,3.90
2019-05-03T15:35:35.100Z,3.53
2019-05-03T15:38:06.336Z,4.53
2019-05-03T15:40:35.480Z,3.90
2019-05-03T15:43:28.745Z,5.90
2019-05-03T15:46:14.952Z,3.20
2019-05-03T15:48:49.862Z,3.13
2019-05-03T15:51:19.178Z,3.97
2019-05-03T15:53:48.346Z,3.63
2019-05-03T15:56:17.462Z,4.27
2019-05-03T15:58:51.899Z,4.33
2019-05-03T16:01:21.819Z,4.07
2019-05-03T16:03:51.396Z,5.30
2019-05-03T16:06:20.591Z,6.70
2019-05-03T16:08:50.255Z,5.00
2019-05-03T16:11:21.898Z,4.23
2019-05-03T16:13:51.189Z,4.17
2019-05-03T16:16:24.856Z,5.43
2019-05-03T16:18:55.419Z,4.33
2019-05-03T16:21:25.171Z,8.27
2019-05-03T16:23:55.701Z,6.47
2019-05-03T16:26:27.932Z,4.27
2019-05-03T16:29:15.280Z,4.70
2019-05-03T16:31:45.710Z,4.20
2019-05-03T16:34:17.188Z,4.20
2019-05-03T16:36:52.417Z,4.53
2019-05-03T16:39:21.456Z,6.63
2019-05-03T16:41:50.632Z,4.47
2019-05-03T16:44:19.812Z,5.67
2019-05-03T16:46:49.889Z,4.97
2019-05-03T16:49:19.018Z,4.63
2019-05-03T16:51:48.256Z,5.10
2019-05-03T16:54:18.423Z,7.63
2019-05-03T16:56:49.050Z,4.97
2019-05-03T16:59:20.587Z,6.30
2019-05-03T17:01:49.040Z,3.87
2019-05-03T17:04:42.689Z,6.60
2019-05-03T17:07:35.951Z,3.67
2019-05-03T17:10:15.321Z,5.03
2019-05-03T17:12:50.263Z,3.97
2019-05-03T17:15:19.418Z,4.80
2019-05-03T17:17:48.970Z,4.10
2019-05-03T17:20:20.104Z,7.63
2019-05-03T17:22:49.759Z,5.57
2019-05-03T17:25:20.284Z,4.20
2019-05-03T17:27:51.488Z,4.43
2019-05-03T17:30:32.623Z,4.00
2019-05-03T17:32:58.080Z,4.70
2019-05-03T17:35:27.508Z,4.77
2019-05-03T17:37:59.059Z,5.47
2019-05-03T17:40:54.846Z,3.10
2019-05-03T17:43:40.441Z,3.40
2019-05-03T17:46:09.736Z,4.10
2019-05-03T17:48:41.275Z,3.80
2019-05-03T17:51:18.766Z,4.53
2019-05-03T17:54:01.162Z,4.47
2019-05-03T17:56:50.781Z,5.73
2019-05-03T17:59:35.148Z,4.50
2019-05-03T18:05:28.091Z,4.27
2019-05-03T18:08:12.895Z,5.77
2019-05-03T18:10:45.444Z,7.50
2019-05-03T18:13:17.162Z,6.50
2019-05-03T18:15:47.935Z,6.70
2019-05-03T18:18:17.047Z,5.90
2019-05-03T18:20:47.681Z,5.70
2019-05-03T18:23:16.657Z,7.13
2019-05-03T18:25:45.753Z,7.50
2019-05-03T18:28:16.611Z,7.40
2019-05-03T18:30:47.561Z,6.80
2019-05-03T18:33:18.457Z,13.40
2019-05-03T18:35:49.528Z,5.63
2019-05-03T18:38:18.626Z,5.83
2019-05-03T18:40:48.935Z,6.13
2019-05-03T18:43:41.191Z,4.90
2019-05-03T18:46:28.242Z,6.67
2019-05-03T18:49:00.286Z,5.77
2019-05-03T18:51:29.656Z,5.53
2019-05-03T18:54:01.901Z,6.73
2019-05-03T18:56:31.022Z,6.10
2019-05-03T18:59:00.153Z,7.33
2019-05-03T19:01:29.346Z,6.40
2019-05-03T19:04:04.912Z,5.57
2019-05-03T19:06:34.685Z,6.40
2019-05-03T19:09:17.835Z,7.83
2019-05-03T19:11:57.956Z,7.40
2019-05-03T19:14:28.205Z,8.40
2019-05-03T19:17:17.955Z,7.27
2019-05-03T19:19:52.847Z,5.43
2019-05-03T19:22:21.968Z,7.93
2019-05-03T19:24:51.264Z,4.80
2019-05-03T19:27:27.767Z,8.03
2019-05-03T19:29:56.840Z,8.23
2019-05-03T19:32:28.393Z,8.57
2019-05-03T19:34:58.071Z,7.20
2019-05-03T19:37:27.825Z,7.30
2019-05-03T19:39:59.809Z,6.27
2019-05-03T19:42:29.208Z,7.43
2019-05-03T19:44:58.292Z,7.50
2019-05-03T19:47:27.631Z,6.10
2019-05-03T19:49:59.741Z,6.30
2019-05-03T19:52:34.303Z,6.80
2019-05-03T19:55:25.722Z,9.17
2019-05-03T19:57:57.661Z,9.63
2019-05-03T20:00:30.733Z,8.00
2019-05-03T20:03:08.350Z,9.07
2019-05-03T20:06:00.652Z,7.73
2019-05-03T20:08:40.752Z,8.20
2019-05-03T20:11:16.811Z,8.10
2019-05-03T20:13:48.969Z,9.20
2019-05-03T20:16:18.067Z,8.60
2019-05-03T20:18:47.335Z,7.43
2019-05-03T20:21:16.444Z,8.90
2019-05-03T20:23:49.773Z,6.57
2019-05-03T20:26:22.244Z,7.67
2019-05-03T20:28:55.295Z,6.80
2019-05-03T20:31:25.262Z,8.37
2019-05-03T20:34:00.541Z,6.90
2019-05-03T20:36:29.606Z,6.77
2019-05-03T20:38:58.675Z,8.23
2019-05-03T20:41:30.228Z,6.60
2019-05-03T20:44:26.153Z,7.80
2019-05-03T20:47:25.789Z,7.00
2019-05-03T20:50:12.648Z,6.60
2019-05-03T20:52:44.763Z,7.87
2019-05-03T20:55:15.510Z,7.70
2019-05-03T20:57:44.868Z,10.07
2019-05-03T21:00:19.864Z,6.70
2019-05-03T21:02:54.139Z,7.97
2019-05-03T21:05:32.969Z,9.43
2019-05-03T21:08:02.293Z,6.80
2019-05-03T21:10:31.471Z,7.33
2019-05-03T21:13:00.542Z,6.23
2019-05-03T21:15:37.231Z,7.57
2019-05-03T21:18:25.226Z,8.03
2019-05-03T21:21:05.451Z,6.60
2019-05-03T21:23:44.979Z,5.03
2019-05-03T21:26:16.513Z,7.23
2019-05-03T21:28:45.080Z,8.23
2019-05-03T21:31:15.636Z,6.17
2019-05-03T21:33:45.043Z,7.10
2019-05-03T21:36:15.633Z,9.87
2019-05-03T21:38:44.630Z,8.10
2019-05-03T21:41:15.578Z,5.80
2019-05-03T21:43:45.138Z,6.60
2019-05-03T21:46:19.412Z,5.50
2019-05-03T21:49:07.002Z,5.50
2019-05-03T21:51:36.251Z,6.13
2019-05-03T21:54:11.418Z,7.43
2019-05-03T21:56:40.614Z,7.07
2019-05-03T21:59:10.150Z,7.57
2019-05-03T22:01:45.639Z,7.70
2019-05-03T22:04:15.703Z,6.60
2019-05-03T22:06:46.492Z,6.10
2019-05-03T22:09:17.362Z,8.10
2019-05-03T22:11:46.468Z,7.27
2019-05-03T22:14:21.474Z,8.23
2019-05-03T22:17:08.880Z,6.90
2019-05-03T22:19:38.470Z,7.30
2019-05-03T22:22:28.658Z,8.10
2019-05-03T22:24:58.397Z,10.83
2019-05-03T22:27:36.293Z,8.07
2019-05-03T22:30:07.220Z,7.63
2019-05-03T22:32:44.530Z,7.77
2019-05-03T22:35:12.574Z,7.67
2019-05-03T22:37:41.628Z,8.20
2019-05-03T22:40:12.095Z,12.00
2019-05-03T22:42:44.655Z,8.20
2019-05-03T22:45:13.626Z,9.53
2019-05-03T22:47:44.571Z,9.37
2019-05-03T22:50:15.950Z,7.33
2019-05-03T22:52:45.569Z,7.70
2019-05-03T22:55:17.984Z,8.73
2019-05-03T22:57:47.146Z,7.87
2019-05-03T23:00:16.304Z,7.77
2019-05-03T23:02:46.753Z,7.90
2019-05-03T23:05:15.785Z,8.80
2019-05-03T23:07:46.927Z,8.57
2019-05-03T23:10:19.410Z,9.40
2019-05-03T23:12:49.943Z,6.67
2019-05-03T23:15:26.343Z,8.00
2019-05-03T23:18:01.680Z,7.20
2019-05-03T23:20:38.521Z,9.53
2019-05-03T23:23:29.544Z,7.67
2019-05-03T23:26:01.762Z,13.70
2019-05-03T23:28:35.617Z,8.57
2019-05-03T23:31:07.498Z,9.80
2019-05-03T23:33:40.566Z,8.37
2019-05-03T23:36:12.326Z,6.63
2019-05-03T23:38:42.110Z,8.47
2019-05-03T23:41:11.197Z,10.33
2019-05-03T23:43:40.326Z,8.70
2019-05-03T23:46:14.482Z,10.20
2019-05-03T23:48:45.901Z,10.10
2019-05-03T23:51:35.095Z,9.40
2019-05-03T23:54:05.593Z,9.60
2019-05-03T23:56:35.121Z,8.20
2019-05-03T23:59:08.263Z,7.17
